createdAt,value
2018-12-25T00:00:47.785Z,4.42
2018-12-25T00:03:20.418Z,4.97
2018-12-25T00:05:53.280Z,6.95
2018-12-25T00:08:25.899Z,5.87
2018-12-25T00:10:58.859Z,4.87
2018-12-25T00:13:31.401Z,5.45
2018-12-25T00:16:04.179Z,5.40
2018-12-25T00:18:36.938Z,6.70
2018-12-25T00:21:10.702Z,5.10
2018-12-25T00:23:43.817Z,5.20
2018-12-25T00:26:16.518Z,5.42
2018-12-25T00:28:49.257Z,4.65
2018-12-25T00:31:21.798Z,5.30
2018-12-25T00:33:54.098Z,5.03
2018-12-25T00:36:26.545Z,4.65
2018-12-25T00:38:59.257Z,4.45
2018-12-25T00:41:31.499Z,5.37
2018-12-25T00:44:04.518Z,5.10
2018-12-25T00:46:37.516Z,4.92
2018-12-25T00:49:14.761Z,4.78
2018-12-25T00:51:45.257Z,3.85
2018-12-25T00:54:18.335Z,4.17
2018-12-25T00:56:53.615Z,7.10
2018-12-25T00:59:26.298Z,7.33
2018-12-25T01:01:59.096Z,5.97
2018-12-25T01:04:32.196Z,4.42
2018-12-25T01:07:05.497Z,4.60
2018-12-25T01:09:38.458Z,4.33
2018-12-25T01:12:10.957Z,3.85
2018-12-25T01:14:44.276Z,3.50
2018-12-25T01:17:17.136Z,3.67
2018-12-25T01:19:49.277Z,4.10
2018-12-25T01:22:22.297Z,4.83
2018-12-25T01:24:55.338Z,5.17
2018-12-25T01:27:28.397Z,5.72
2018-12-25T01:30:00.998Z,4.70
2018-12-25T01:32:34.537Z,4.25
2018-12-25T01:35:07.956Z,5.05
2018-12-25T01:37:40.296Z,4.90
2018-12-25T01:40:13.357Z,4.60
2018-12-25T01:42:45.677Z,4.35
2018-12-25T01:45:18.277Z,4.10
2018-12-25T01:47:51.020Z,4.70
2018-12-25T01:50:23.999Z,3.55
2018-12-25T01:52:57.017Z,3.40
2018-12-25T01:55:29.437Z,3.58
2018-12-25T01:58:02.339Z,2.95
2018-12-25T02:00:35.819Z,2.95
2018-12-25T02:03:09.497Z,2.62
2018-12-25T02:05:42.317Z,3.10
2018-12-25T02:08:14.818Z,3.50
2018-12-25T02:10:47.357Z,3.25
2018-12-25T02:13:20.377Z,4.35
2018-12-25T02:15:52.558Z,4.45
2018-12-25T02:18:24.836Z,4.45
2018-12-25T02:20:57.897Z,3.60
2018-12-25T02:23:30.618Z,4.08
2018-12-25T02:26:03.325Z,4.97
2018-12-25T02:28:36.136Z,4.37
2018-12-25T02:31:09.118Z,5.58
2018-12-25T02:33:42.138Z,5.00
2018-12-25T02:36:15.219Z,4.53
2018-12-25T02:38:47.482Z,4.78
2018-12-25T02:41:20.578Z,3.95
2018-12-25T02:43:53.718Z,4.50
2018-12-25T02:46:26.829Z,4.22
2018-12-25T02:48:58.922Z,5.00
2018-12-25T02:51:32.018Z,5.80
2018-12-25T02:54:05.079Z,4.40
2018-12-25T02:56:38.378Z,5.10
2018-12-25T02:59:10.698Z,5.28
2018-12-25T03:01:43.341Z,4.15
2018-12-25T03:04:15.679Z,6.17
2018-12-25T03:06:47.958Z,5.10
2018-12-25T03:09:20.697Z,5.00
2018-12-25T03:11:53.859Z,4.80
2018-12-25T03:14:25.619Z,5.65
2018-12-25T03:16:58.349Z,5.78
2018-12-25T03:19:34.197Z,6.78
2018-12-25T03:22:06.779Z,6.10
2018-12-25T03:24:40.419Z,5.25
2018-12-25T03:27:13.337Z,5.95
2018-12-25T03:29:47.388Z,4.70
2018-12-25T03:32:20.100Z,18.48
2018-12-25T03:34:52.240Z,5.45
2018-12-25T03:37:25.086Z,6.20
2018-12-25T03:39:57.838Z,6.10
2018-12-25T03:42:30.918Z,4.47
2018-12-25T03:45:03.276Z,5.20
2018-12-25T03:47:36.158Z,6.10
2018-12-25T03:50:11.108Z,6.03
2018-12-25T03:52:44.462Z,6.40
2018-12-25T03:55:17.740Z,6.22
2018-12-25T03:57:50.242Z,5.67
2018-12-25T04:00:22.559Z,8.15
2018-12-25T04:02:55.018Z,6.58
2018-12-25T04:05:28.179Z,6.20
2018-12-25T04:08:01.736Z,6.42
2018-12-25T04:10:34.617Z,5.90
2018-12-25T04:13:07.178Z,6.42
2018-12-25T04:15:39.238Z,5.47
2018-12-25T04:18:11.583Z,5.80
2018-12-25T04:20:45.040Z,5.85
2018-12-25T04:23:17.519Z,6.40
2018-12-25T04:25:50.857Z,5.50
2018-12-25T04:28:22.798Z,5.90
2018-12-25T04:30:55.977Z,5.80
2018-12-25T04:33:28.558Z,6.92
2018-12-25T04:36:02.219Z,5.80
2018-12-25T04:38:35.280Z,6.12
2018-12-25T04:41:07.879Z,6.78
2018-12-25T04:43:40.697Z,6.20
2018-12-25T04:46:13.539Z,5.90
2018-12-25T04:48:45.899Z,6.22
2018-12-25T04:51:18.899Z,5.70
2018-12-25T04:53:51.779Z,6.28
2018-12-25T04:56:24.619Z,6.85
2018-12-25T04:58:57.116Z,6.62
2018-12-25T05:01:29.857Z,6.42
2018-12-25T05:04:02.421Z,10.75
2018-12-25T05:06:35.978Z,7.42
2018-12-25T05:09:09.178Z,7.62
2018-12-25T05:11:41.198Z,7.80
2018-12-25T05:14:14.718Z,6.50
2018-12-25T05:16:47.557Z,5.65
2018-12-25T05:19:20.926Z,6.25
2018-12-25T05:21:53.117Z,5.95
2018-12-25T05:24:26.337Z,5.92
2018-12-25T05:26:58.978Z,5.72
2018-12-25T05:29:30.978Z,6.35
2018-12-25T05:32:03.518Z,5.55
2018-12-25T05:34:35.643Z,6.00
2018-12-25T05:37:08.498Z,8.40
2018-12-25T05:39:41.807Z,6.20
2018-12-25T05:42:14.837Z,7.30
2018-12-25T05:44:47.459Z,7.00
2018-12-25T05:47:19.842Z,8.20
2018-12-25T05:49:52.838Z,6.97
2018-12-25T05:52:25.918Z,7.80
2018-12-25T05:54:58.558Z,6.90
2018-12-25T05:57:31.619Z,8.75
2018-12-25T06:00:05.159Z,7.70
2018-12-25T06:02:38.300Z,8.68
2018-12-25T06:05:11.617Z,8.28
2018-12-25T06:07:44.017Z,7.78
2018-12-25T06:10:17.141Z,7.00
2018-12-25T06:12:50.417Z,8.20
2018-12-25T06:15:23.977Z,8.38
2018-12-25T06:17:57.096Z,7.33
2018-12-25T06:20:29.176Z,7.03
2018-12-25T06:23:02.056Z,6.70
2018-12-25T06:25:34.837Z,6.62
2018-12-25T06:28:08.136Z,6.85
2018-12-25T06:30:40.338Z,6.95
2018-12-25T06:33:12.939Z,6.03
2018-12-25T06:35:45.896Z,6.40
2018-12-25T06:38:18.117Z,7.50
2018-12-25T06:40:51.356Z,7.15
2018-12-25T06:43:24.496Z,7.62
2018-12-25T06:45:57.738Z,9.35
2018-12-25T06:48:30.580Z,8.25
2018-12-25T06:51:04.240Z,7.50
2018-12-25T06:53:37.697Z,6.90
2018-12-25T06:56:10.377Z,7.50
2018-12-25T06:58:43.516Z,7.90
2018-12-25T07:01:16.057Z,7.35
2018-12-25T07:03:48.557Z,8.15
2018-12-25T07:06:20.736Z,8.25
2018-12-25T07:08:53.837Z,7.80
2018-12-25T07:11:26.559Z,9.50
2018-12-25T07:13:58.876Z,8.85
2018-12-25T07:16:31.175Z,8.70
2018-12-25T07:19:04.017Z,9.78
2018-12-25T07:21:36.516Z,9.05
2018-12-25T07:24:09.056Z,9.50
2018-12-25T07:26:41.809Z,10.35
2018-12-25T07:29:15.115Z,11.45
2018-12-25T07:31:47.196Z,9.83
2018-12-25T07:34:19.816Z,11.57
2018-12-25T07:36:53.416Z,10.00
2018-12-25T07:39:27.016Z,8.25
2018-12-25T07:42:00.516Z,7.50
2018-12-25T07:44:33.914Z,7.90
2018-12-25T07:47:06.856Z,8.85
2018-12-25T07:49:39.395Z,9.35
2018-12-25T07:52:11.636Z,11.65
2018-12-25T07:54:44.196Z,18.50
2018-12-25T07:57:16.779Z,10.05
2018-12-25T07:59:49.917Z,8.00
2018-12-25T08:02:22.977Z,6.83
2018-12-25T08:04:54.984Z,5.90
2018-12-25T08:07:27.676Z,6.55
2018-12-25T08:10:01.275Z,6.80
2018-12-25T08:12:34.676Z,6.80
2018-12-25T08:15:07.398Z,5.90
2018-12-25T08:17:39.677Z,8.53
2018-12-25T08:20:13.155Z,12.10
2018-12-25T08:22:46.077Z,11.90
2018-12-25T08:25:18.075Z,11.57
2018-12-25T08:27:50.096Z,8.60
2018-12-25T08:30:22.835Z,8.73
2018-12-25T08:32:55.177Z,8.15
2018-12-25T08:35:27.876Z,7.92
2018-12-25T08:38:00.896Z,7.62
2018-12-25T08:40:33.695Z,9.80
2018-12-25T08:43:06.217Z,9.73
2018-12-25T08:45:38.899Z,11.40
2018-12-25T08:48:11.917Z,9.60
2018-12-25T08:50:44.355Z,6.15
2018-12-25T08:53:17.397Z,6.67
2018-12-25T08:55:50.695Z,7.10
2018-12-25T08:58:24.476Z,4.37
2018-12-25T09:00:57.695Z,5.37
2018-12-25T09:03:29.957Z,4.83
2018-12-25T09:06:02.575Z,3.90
2018-12-25T09:08:35.878Z,4.00
2018-12-25T09:11:08.036Z,3.83
2018-12-25T09:13:40.676Z,4.20
2018-12-25T09:16:13.795Z,4.00
2018-12-25T09:18:47.735Z,4.10
2018-12-25T09:21:21.255Z,3.85
2018-12-25T09:23:53.598Z,4.20
2018-12-25T09:26:25.816Z,4.08
2018-12-25T09:28:58.798Z,4.45
2018-12-25T09:31:30.859Z,4.25
2018-12-25T09:34:03.575Z,4.30
2018-12-25T09:36:37.056Z,4.25
2018-12-25T09:39:10.576Z,4.40
2018-12-25T09:41:43.737Z,4.20
2018-12-25T09:44:15.982Z,5.70
2018-12-25T09:46:49.637Z,4.78
2018-12-25T09:49:22.358Z,4.90
2018-12-25T09:51:55.499Z,3.77
2018-12-25T09:54:28.938Z,3.30
2018-12-25T09:57:02.019Z,4.20
2018-12-25T09:59:34.637Z,4.62
2018-12-25T10:02:06.577Z,5.15
2018-12-25T10:04:39.236Z,3.30
2018-12-25T10:07:11.516Z,3.27
2018-12-25T10:09:44.716Z,3.70
2018-12-25T10:12:18.138Z,4.10
2018-12-25T10:14:51.637Z,3.60
2018-12-25T10:17:24.457Z,4.10
2018-12-25T10:19:58.300Z,3.80
2018-12-25T10:22:31.616Z,3.10
2018-12-25T10:25:03.877Z,8.20
2018-12-25T10:27:36.618Z,5.25
2018-12-25T10:30:09.316Z,4.10
2018-12-25T10:32:42.196Z,3.80
2018-12-25T10:35:14.362Z,4.15
2018-12-25T10:37:47.178Z,3.80
2018-12-25T10:40:19.897Z,4.30
2018-12-25T10:42:52.258Z,4.08
2018-12-25T10:45:24.577Z,3.80
2018-12-25T10:47:57.676Z,3.40
2018-12-25T10:50:31.020Z,3.95
2018-12-25T10:53:03.836Z,3.40
2018-12-25T10:55:36.076Z,3.35
2018-12-25T10:58:09.136Z,2.67
2018-12-25T11:00:48.356Z,2.95
2018-12-25T11:03:21.297Z,2.90
2018-12-25T11:05:53.775Z,2.45
2018-12-25T11:08:27.056Z,2.33
2018-12-25T11:10:59.536Z,2.10
2018-12-25T11:13:32.336Z,2.65
2018-12-25T11:16:04.696Z,2.35
2018-12-25T11:18:37.976Z,2.70
2018-12-25T11:21:11.378Z,3.10
2018-12-25T11:23:43.736Z,3.83
2018-12-25T11:26:16.078Z,2.80
2018-12-25T11:28:49.078Z,2.85
2018-12-25T11:31:21.718Z,2.83
2018-12-25T11:33:53.919Z,2.20
2018-12-25T11:36:27.117Z,2.27
2018-12-25T11:38:59.856Z,2.80
2018-12-25T11:41:32.835Z,2.62
2018-12-25T11:44:05.318Z,2.72
2018-12-25T11:46:37.555Z,3.00
2018-12-25T11:49:10.116Z,2.98
2018-12-25T11:51:42.316Z,3.60
2018-12-25T11:54:15.676Z,3.08
2018-12-25T11:56:48.075Z,3.45
2018-12-25T11:59:20.858Z,3.00
2018-12-25T12:01:53.895Z,2.60
2018-12-25T12:04:26.221Z,2.90
2018-12-25T12:06:59.375Z,3.90
2018-12-25T12:09:32.179Z,3.60
2018-12-25T12:12:05.817Z,4.67
2018-12-25T12:14:39.076Z,4.42
2018-12-25T12:17:11.656Z,7.65
2018-12-25T12:19:45.257Z,6.70
2018-12-25T12:22:18.216Z,8.58
2018-12-25T12:24:50.656Z,8.03
2018-12-25T12:27:23.258Z,8.20
2018-12-25T12:29:56.145Z,9.03
2018-12-25T12:32:28.961Z,10.08
2018-12-25T12:35:01.318Z,9.50
2018-12-25T12:37:34.159Z,9.90
2018-12-25T12:40:06.677Z,10.88
2018-12-25T12:42:39.757Z,9.20
2018-12-25T12:45:13.657Z,8.83
2018-12-25T12:47:47.217Z,9.05
2018-12-25T12:50:19.456Z,11.00
2018-12-25T12:52:52.320Z,9.65
2018-12-25T12:55:24.996Z,10.28
2018-12-25T12:57:57.775Z,11.85
2018-12-25T13:00:30.375Z,9.95
2018-12-25T13:03:03.896Z,8.80
2018-12-25T13:05:36.835Z,8.98
2018-12-25T13:08:09.216Z,11.15
2018-12-25T13:10:42.955Z,10.65
2018-12-25T13:13:15.476Z,9.03
2018-12-25T13:15:48.376Z,9.18
2018-12-25T13:18:20.979Z,10.00
2018-12-25T13:20:53.416Z,9.40
2018-12-25T13:23:26.339Z,10.10
2018-12-25T13:25:59.476Z,9.23
2018-12-25T13:28:32.516Z,8.85
2018-12-25T13:31:05.336Z,8.90
2018-12-25T13:33:37.737Z,10.10
2018-12-25T13:36:10.777Z,9.65
2018-12-25T13:38:43.396Z,9.50
2018-12-25T13:41:15.919Z,8.95
2018-12-25T13:43:49.099Z,11.10
2018-12-25T13:46:21.640Z,8.05
2018-12-25T13:48:54.220Z,9.85
2018-12-25T13:51:26.920Z,9.80
2018-12-25T13:53:59.620Z,8.23
2018-12-25T13:56:31.424Z,9.80
2018-12-25T13:59:03.517Z,10.20
2018-12-25T14:01:37.101Z,9.45
2018-12-25T14:04:10.403Z,9.15
2018-12-25T14:06:42.529Z,9.65
2018-12-25T14:09:15.267Z,8.73
2018-12-25T14:11:49.222Z,9.93
2018-12-25T14:14:21.747Z,10.10
2018-12-25T14:16:54.681Z,9.33
2018-12-25T14:19:26.882Z,8.45
2018-12-25T14:21:59.525Z,9.05
2018-12-25T14:24:31.382Z,9.93
2018-12-25T14:27:04.764Z,9.15
2018-12-25T14:29:37.781Z,10.10
2018-12-25T14:32:09.902Z,9.80
2018-12-25T14:34:42.084Z,8.98
2018-12-25T14:37:15.230Z,9.08
2018-12-25T14:39:48.541Z,9.13
2018-12-25T14:42:20.962Z,8.90
2018-12-25T14:44:53.761Z,9.18
2018-12-25T14:47:26.263Z,7.83
2018-12-25T14:49:58.682Z,10.63
2018-12-25T14:52:31.482Z,8.38
2018-12-25T14:55:04.563Z,9.55
2018-12-25T14:57:37.344Z,10.23
2018-12-25T15:00:10.362Z,8.40
2018-12-25T15:02:42.903Z,9.05
2018-12-25T15:05:15.601Z,9.60
2018-12-25T15:07:48.762Z,7.47
2018-12-25T15:10:20.502Z,10.20
2018-12-25T15:12:53.440Z,9.33
2018-12-25T15:15:25.821Z,10.58
2018-12-25T15:17:59.102Z,12.45
2018-12-25T15:20:31.984Z,10.28
2018-12-25T15:23:04.662Z,9.85
2018-12-25T15:25:36.922Z,8.70
2018-12-25T15:28:10.702Z,9.08
2018-12-25T15:30:43.162Z,9.00
2018-12-25T15:33:15.883Z,9.80
2018-12-25T15:35:49.302Z,10.45
2018-12-25T15:38:21.921Z,10.85
2018-12-25T15:40:54.681Z,10.23
2018-12-25T15:43:27.322Z,10.30
2018-12-25T15:46:02.437Z,10.58
2018-12-25T15:48:35.644Z,10.55
2018-12-25T15:51:08.964Z,12.53
2018-12-25T15:53:41.728Z,11.30
2018-12-25T15:56:14.182Z,10.18
2018-12-25T15:58:46.603Z,9.80
2018-12-25T16:01:19.083Z,11.22
2018-12-25T16:03:51.903Z,11.60
2018-12-25T16:06:24.884Z,10.10
2018-12-25T16:08:57.561Z,12.55
2018-12-25T16:11:29.542Z,12.28
2018-12-25T16:14:03.282Z,15.00
2018-12-25T16:16:37.263Z,13.88
2018-12-25T16:19:09.544Z,14.13
2018-12-25T16:21:42.402Z,15.10
2018-12-25T16:24:15.523Z,14.50
2018-12-25T16:26:48.842Z,16.40
2018-12-25T16:29:21.665Z,17.45
2018-12-25T16:31:54.423Z,17.25
2018-12-25T16:34:27.003Z,16.97
2018-12-25T16:37:00.462Z,16.75
2018-12-25T16:39:34.004Z,13.85
2018-12-25T16:42:06.124Z,15.25
2018-12-25T16:44:39.364Z,14.20
2018-12-25T16:47:13.083Z,15.65
2018-12-25T16:49:46.302Z,14.75
2018-12-25T16:52:19.483Z,14.47
2018-12-25T16:54:51.827Z,16.07
2018-12-25T16:57:24.683Z,16.20
2018-12-25T16:59:57.903Z,16.65
2018-12-25T17:02:30.803Z,16.80
2018-12-25T17:05:03.863Z,22.00
2018-12-25T17:07:36.662Z,16.57
2018-12-25T17:10:09.923Z,18.25
2018-12-25T17:12:42.527Z,17.05
2018-12-25T17:15:16.024Z,17.17
2018-12-25T17:17:47.804Z,17.60
2018-12-25T17:20:21.003Z,18.87
2018-12-25T17:22:54.365Z,17.17
2018-12-25T17:25:27.303Z,16.02
2018-12-25T17:27:59.244Z,16.37
2018-12-25T17:30:31.643Z,16.45
2018-12-25T17:33:04.244Z,16.62
2018-12-25T17:35:36.924Z,17.12
2018-12-25T17:38:11.889Z,17.25
2018-12-25T17:40:44.448Z,17.90
2018-12-25T17:43:17.643Z,17.45
2018-12-25T17:45:49.903Z,17.02
2018-12-25T17:48:22.926Z,16.77
2018-12-25T17:50:55.724Z,17.15
2018-12-25T17:53:28.813Z,17.25
2018-12-25T17:56:02.203Z,17.20
2018-12-25T17:58:35.683Z,17.82
2018-12-25T18:01:09.022Z,18.57
2018-12-25T18:03:41.183Z,24.95
2018-12-25T18:06:13.865Z,19.62
2018-12-25T18:08:47.022Z,21.70
2018-12-25T18:11:18.882Z,20.00
2018-12-25T18:13:51.423Z,18.15
2018-12-25T18:16:24.505Z,17.30
2018-12-25T18:18:56.463Z,18.98
2018-12-25T18:21:29.202Z,16.85
2018-12-25T18:24:03.605Z,16.48
2018-12-25T18:26:36.083Z,19.00
2018-12-25T18:29:08.662Z,18.15
2018-12-25T18:31:41.643Z,18.35
2018-12-25T18:34:15.103Z,19.30
2018-12-25T18:36:47.943Z,19.98
2018-12-25T18:39:20.243Z,22.22
2018-12-25T18:41:52.764Z,19.90
2018-12-25T18:44:25.644Z,21.20
2018-12-25T18:46:57.883Z,21.12
2018-12-25T18:49:30.626Z,18.05
2018-12-25T18:52:04.002Z,18.65
2018-12-25T18:54:37.302Z,20.92
2018-12-25T18:57:09.964Z,20.97
2018-12-25T18:59:42.102Z,21.23
2018-12-25T19:02:15.544Z,16.80
2018-12-25T19:04:49.103Z,16.75
2018-12-25T19:07:22.163Z,16.75
2018-12-25T19:09:54.522Z,18.32
2018-12-25T19:12:27.803Z,17.23
2018-12-25T19:15:06.522Z,16.85
2018-12-25T19:17:39.783Z,17.02
2018-12-25T19:20:13.083Z,16.93
2018-12-25T19:22:45.404Z,16.70
2018-12-25T19:25:17.764Z,19.25
2018-12-25T19:27:50.463Z,18.27
2018-12-25T19:30:24.602Z,17.00
2018-12-25T19:32:56.722Z,17.32
2018-12-25T19:35:29.022Z,15.93
2018-12-25T19:38:01.822Z,15.85
2018-12-25T19:40:33.765Z,18.95
2018-12-25T19:43:06.906Z,14.00
2018-12-25T19:45:40.344Z,13.75
2018-12-25T19:48:13.342Z,13.30
2018-12-25T19:50:45.184Z,12.58
2018-12-25T19:53:17.522Z,14.30
2018-12-25T19:55:49.484Z,10.60
2018-12-25T19:58:22.045Z,13.40
2018-12-25T20:00:55.263Z,13.28
2018-12-25T20:03:53.464Z,15.18
2018-12-25T20:07:20.524Z,14.87
2018-12-25T20:10:50.464Z,15.90
2018-12-25T20:14:16.504Z,16.40
2018-12-25T20:17:22.923Z,10.90
2018-12-25T20:20:29.524Z,15.05
2018-12-25T20:23:32.062Z,16.42
2018-12-25T20:27:02.263Z,12.18
2018-12-25T20:30:01.215Z,11.15
2018-12-25T20:33:02.242Z,15.90
2018-12-25T20:36:20.623Z,11.70
2018-12-25T20:39:16.701Z,12.58
2018-12-25T20:42:23.864Z,12.13
2018-12-25T20:45:37.023Z,13.15
2018-12-25T20:49:03.982Z,13.55
2018-12-25T20:52:12.911Z,12.28
2018-12-25T20:55:23.124Z,10.85
2018-12-25T20:58:49.224Z,12.90
2018-12-25T21:02:02.983Z,11.10
2018-12-25T21:05:23.964Z,11.73
2018-12-25T21:08:53.866Z,11.05
2018-12-25T21:11:51.843Z,8.50
2018-12-25T21:15:14.045Z,8.98
2018-12-25T21:18:37.625Z,8.88
2018-12-25T21:21:51.085Z,6.55
2018-12-25T21:24:57.466Z,10.18
2018-12-25T21:27:33.883Z,9.35
2018-12-25T21:30:13.404Z,9.43
2018-12-25T21:32:46.903Z,8.25
2018-12-25T21:35:26.325Z,18.82
2018-12-25T21:37:59.805Z,10.03
2018-12-25T21:40:32.802Z,9.90
2018-12-25T21:43:05.565Z,9.35
2018-12-25T21:45:39.165Z,9.03
2018-12-25T21:48:12.646Z,10.90
2018-12-25T21:50:46.005Z,8.88
2018-12-25T21:53:18.725Z,8.58
2018-12-25T21:55:52.343Z,9.70
2018-12-25T21:58:25.284Z,8.70
2018-12-25T22:00:58.024Z,8.63
2018-12-25T22:03:30.744Z,7.65
2018-12-25T22:06:05.231Z,6.90
2018-12-25T22:08:37.184Z,7.65
2018-12-25T22:11:10.484Z,7.85
2018-12-25T22:13:42.804Z,8.03
2018-12-25T22:16:16.068Z,7.50
2018-12-25T22:18:49.023Z,7.37
2018-12-25T22:21:22.103Z,7.17
2018-12-25T22:23:53.984Z,7.65
2018-12-25T22:26:26.787Z,7.15
2018-12-25T22:28:59.564Z,5.40
2018-12-25T22:31:32.185Z,4.90
2018-12-25T22:34:04.803Z,5.08
2018-12-25T22:36:38.323Z,4.03
2018-12-25T22:39:12.086Z,4.28
2018-12-25T22:41:45.004Z,4.05
2018-12-25T22:44:17.144Z,3.70
2018-12-25T22:46:49.884Z,2.60
2018-12-25T22:49:23.603Z,6.50
2018-12-25T22:51:55.858Z,3.22
2018-12-25T22:54:28.104Z,2.90
2018-12-25T22:57:00.563Z,2.77
2018-12-25T22:59:34.004Z,2.65
2018-12-25T23:02:06.124Z,2.85
2018-12-25T23:04:39.005Z,2.67
2018-12-25T23:07:12.065Z,2.60
2018-12-25T23:09:45.365Z,3.00
2018-12-25T23:12:18.743Z,3.20
2018-12-25T23:14:51.565Z,5.65
2018-12-25T23:17:24.823Z,5.50
2018-12-25T23:19:57.264Z,4.85
2018-12-25T23:22:30.083Z,3.60
2018-12-25T23:25:02.704Z,3.47
2018-12-25T23:27:35.183Z,3.75
2018-12-25T23:30:08.104Z,3.92
2018-12-25T23:32:41.144Z,3.40
2018-12-25T23:35:13.603Z,3.27
2018-12-25T23:37:46.843Z,3.60
2018-12-25T23:40:20.504Z,3.52
2018-12-25T23:42:53.303Z,2.85
2018-12-25T23:45:26.584Z,2.60
2018-12-25T23:47:59.282Z,2.45
2018-12-25T23:50:32.942Z,2.10
2018-12-25T23:53:06.797Z,2.50
2018-12-25T23:55:39.764Z,2.30
2018-12-25T23:58:12.343Z,2.17
